Time;durP1;ratioP1;P1;durP2;ratioP2;P2;SDS_P1;SDS_P2;PMS_P1;PMS_P2;Temp;Humidity;BMP_temperature;BMP_pressure;BME280_temperature;BME280_humidity;BME280_pressure;Samples;Min_cycle;Max_cycle;Signal;HPM_P1;HPM_P2
2022/03/10 00:01:25;;;;;;;30.65;21.80;;;5.20;86.10;;;;;;4992924;28;20038;-47
2022/03/10 00:04:10;;;;;;;31.58;21.58;;;5.20;86.70;;;;;;4994129;28;20057;-49
2022/03/10 00:06:54;;;;;;;30.73;21.35;;;5.10;86.30;;;;;;4995719;28;20457;-44
2022/03/10 00:09:38;;;;;;;26.65;20.60;;;5.10;87.00;;;;;;4992915;28;20497;-48
2022/03/10 00:12:22;;;;;;;25.10;20.65;;;4.90;88.80;;;;;;5004382;28;20045;-48
2022/03/10 00:15:08;;;;;;;27.65;20.10;;;4.90;89.80;;;;;;4995174;28;20045;-48
2022/03/10 00:17:53;;;;;;;29.00;20.48;;;4.80;90.00;;;;;;4987750;28;20069;-44
2022/03/10 00:20:37;;;;;;;32.92;20.52;;;4.80;90.40;;;;;;4988003;28;20041;-46
2022/03/10 00:23:21;;;;;;;24.25;19.90;;;4.70;90.70;;;;;;4974419;28;20406;-44
2022/03/10 00:26:05;;;;;;;26.55;20.33;;;4.70;91.10;;;;;;4991079;28;20038;-47
2022/03/10 00:28:50;;;;;;;30.63;21.48;;;4.80;91.30;;;;;;4994953;28;20041;-44
2022/03/10 00:31:34;;;;;;;31.60;20.60;;;4.70;91.10;;;;;;4994889;28;20076;-48
2022/03/10 00:34:18;;;;;;;33.95;22.20;;;4.70;90.70;;;;;;4993472;28;20089;-44
2022/03/10 00:37:03;;;;;;;33.13;20.60;;;4.70;90.80;;;;;;4991435;28;20462;-45
2022/03/10 00:39:48;;;;;;;29.02;20.10;;;4.70;90.90;;;;;;4991683;28;20032;-50
2022/03/10 00:42:39;;;;;;;29.80;20.80;;;4.70;91.40;;;;;;4980625;28;20502;-45
2022/03/10 00:45:25;;;;;;;29.45;19.75;;;4.70;92.10;;;;;;4975155;28;20034;-45
2022/03/10 00:48:09;;;;;;;24.98;20.23;;;4.70;92.50;;;;;;4976671;28;20057;-46
2022/03/10 00:50:54;;;;;;;25.95;20.30;;;4.60;92.60;;;;;;4994495;28;20401;-45
2022/03/10 00:53:38;;;;;;;27.02;19.80;;;4.60;92.40;;;;;;4994033;28;20113;-49
2022/03/10 00:56:22;;;;;;;23.98;19.25;;;4.60;92.20;;;;;;4994634;28;20089;-51
2022/03/10 00:59:06;;;;;;;27.65;19.80;;;4.70;91.90;;;;;;4994450;28;20050;-50
2022/03/10 01:01:50;;;;;;;28.35;20.55;;;4.70;91.40;;;;;;5006838;28;20073;-49
2022/03/10 01:04:34;;;;;;;27.05;20.00;;;4.50;91.60;;;;;;4994234;28;20410;-45
2022/03/10 01:07:18;;;;;;;28.85;20.88;;;4.40;92.00;;;;;;4992982;28;20564;-48
2022/03/10 01:10:06;;;;;;;27.00;18.95;;;4.30;92.50;;;;;;4993905;28;20099;-44
2022/03/10 01:12:51;;;;;;;25.77;19.27;;;4.30;90.90;;;;;;5006251;28;20490;-48
2022/03/10 01:15:35;;;;;;;26.23;19.80;;;4.10;91.30;;;;;;4994514;28;20390;-49
2022/03/10 01:18:19;;;;;;;25.38;19.10;;;3.90;92.10;;;;;;4994025;28;20037;-47
2022/03/10 01:21:03;;;;;;;25.42;19.48;;;3.80;91.80;;;;;;4994362;28;20101;-47
2022/03/10 01:23:47;;;;;;;26.75;19.23;;;3.70;92.00;;;;;;5006200;28;20049;-49
2022/03/10 01:26:31;;;;;;;27.70;18.60;;;3.80;92.50;;;;;;4994134;28;20092;-48
2022/03/10 01:29:15;;;;;;;27.92;19.85;;;3.80;92.90;;;;;;4993699;28;20065;-46
2022/03/10 01:31:59;;;;;;;27.10;17.90;;;3.90;93.00;;;;;;4993702;28;20046;-49
2022/03/10 01:34:43;;;;;;;26.38;18.27;;;4.00;92.80;;;;;;4992334;28;20414;-47
2022/03/10 01:37:28;;;;;;;25.13;18.67;;;4.00;93.30;;;;;;4993523;28;20422;-49
2022/03/10 01:40:16;;;;;;;25.83;19.73;;;4.00;94.00;;;;;;4993507;28;20042;-46
2022/03/10 01:43:00;;;;;;;26.10;18.70;;;4.00;94.30;;;;;;4977482;28;20049;-46
2022/03/10 01:45:44;;;;;;;28.13;19.08;;;4.00;94.60;;;;;;4993792;28;20045;-47
2022/03/10 01:48:28;;;;;;;25.70;19.60;;;4.10;94.70;;;;;;4993862;28;20046;-47
2022/03/10 01:51:12;;;;;;;25.98;19.77;;;4.00;95.00;;;;;;4993479;28;20157;-53
2022/03/10 01:53:56;;;;;;;26.50;19.90;;;4.00;95.10;;;;;;4993224;28;20466;-49
2022/03/10 01:56:41;;;;;;;27.30;18.67;;;4.00;95.20;;;;;;4993383;28;20157;-51
2022/03/10 01:59:26;;;;;;;;;;;4.00;95.20;;;;;;4993538;28;20041;-47
2022/03/10 02:02:10;;;;;;;25.20;18.52;;;4.00;95.20;;;;;;5005739;28;19964;-49
2022/03/10 02:04:54;;;;;;;27.20;19.85;;;3.90;95.40;;;;;;4993346;28;20045;-51
2022/03/10 02:10:45;;;;;;;27.05;19.35;;;3.80;95.50;;;;;;4993020;28;20033;-49
2022/03/10 02:13:29;;;;;;;26.63;19.77;;;3.70;95.50;;;;;;4992400;28;20057;-47
2022/03/10 02:19:17;;;;;;;26.98;19.60;;;3.60;95.70;;;;;;4993392;28;20036;-48
2022/03/10 02:22:10;;;;;;;27.58;19.85;;;3.60;96.20;;;;;;4974711;28;20030;-50
2022/03/10 02:24:54;;;;;;;32.83;19.35;;;3.70;96.10;;;;;;4980041;28;20097;-48
2022/03/10 02:27:38;;;;;;;28.98;20.30;;;3.70;96.00;;;;;;4992976;28;21691;-47
2022/03/10 02:30:25;;;;;;;24.88;20.42;;;3.70;96.00;;;;;;4993147;28;20080;-47
2022/03/10 02:33:09;;;;;;;25.13;18.73;;;3.60;96.00;;;;;;4992774;28;20073;-50
2022/03/10 02:35:53;;;;;;;29.60;19.08;;;3.70;96.10;;;;;;4992568;28;20104;-47
2022/03/10 02:38:37;;;;;;;27.67;18.98;;;3.70;96.20;;;;;;4993060;28;20045;-45
2022/03/10 02:41:21;;;;;;;28.70;19.88;;;3.80;96.30;;;;;;4992920;28;20029;-45
2022/03/10 02:44:05;;;;;;;25.67;19.77;;;3.80;96.40;;;;;;4992886;28;20049;-49
2022/03/10 02:46:49;;;;;;;29.37;20.37;;;3.70;96.60;;;;;;5005603;28;20085;-47
2022/03/10 02:49:34;;;;;;;26.88;19.70;;;3.70;96.70;;;;;;4992809;28;20052;-47
2022/03/10 02:52:18;;;;;;;24.27;18.83;;;3.60;96.80;;;;;;4992648;28;20085;-46
2022/03/10 02:55:07;;;;;;;26.65;18.98;;;3.70;96.90;;;;;;4992660;28;20540;-50
2022/03/10 02:57:51;;;;;;;26.83;19.63;;;3.80;96.80;;;;;;4992773;28;20076;-47
2022/03/10 03:00:35;;;;;;;24.00;19.33;;;3.70;96.90;;;;;;4992979;28;20509;-48
2022/03/10 03:03:19;;;;;;;26.92;18.63;;;3.70;97.00;;;;;;4992095;28;20041;-48
2022/03/10 03:06:03;;;;;;;26.73;19.17;;;3.70;97.20;;;;;;4992946;28;20041;-49
2022/03/10 03:08:47;;;;;;;26.40;19.63;;;3.70;97.30;;;;;;4972797;28;20122;-51
2022/03/10 03:11:32;;;;;;;27.58;18.27;;;3.60;97.50;;;;;;4978734;28;20037;-48
2022/03/10 03:14:16;;;;;;;26.20;19.13;;;3.60;97.70;;;;;;4995674;28;20096;-49
2022/03/10 03:17:00;;;;;;;26.45;19.00;;;3.60;97.90;;;;;;4996142;28;20038;-47
2022/03/10 03:19:44;;;;;;;26.20;19.15;;;3.50;98.20;;;;;;4996331;28;20038;-47
2022/03/10 03:22:29;;;;;;;28.00;19.27;;;3.40;98.20;;;;;;4989339;28;20093;-45
2022/03/10 03:25:17;;;;;;;25.83;18.92;;;3.40;98.20;;;;;;4996041;28;20042;-49
2022/03/10 03:28:01;;;;;;;27.33;19.45;;;3.40;98.10;;;;;;4995765;28;20097;-47
2022/03/10 03:30:45;;;;;;;30.23;19.98;;;3.30;98.00;;;;;;4995841;28;20040;-47
2022/03/10 03:33:28;;;;;;;29.75;19.55;;;3.30;98.00;;;;;;5007934;28;20061;-50
2022/03/10 03:36:13;;;;;;;26.13;20.08;;;3.30;98.10;;;;;;4995923;28;20041;-47
2022/03/10 03:38:57;;;;;;;25.90;17.92;;;3.30;98.30;;;;;;4996295;28;20136;-47
2022/03/10 03:41:42;;;;;;;26.20;19.48;;;3.30;97.80;;;;;;4995346;28;20030;-50
2022/03/10 03:44:26;;;;;;;26.35;19.15;;;3.10;97.80;;;;;;4995963;28;20453;-47
2022/03/10 03:47:10;;;;;;;28.63;20.10;;;3.10;98.20;;;;;;4995946;28;20069;-48
2022/03/10 03:49:55;;;;;;;29.35;20.45;;;3.10;98.30;;;;;;4995674;28;20096;-48
2022/03/10 03:52:39;;;;;;;;;;;3.00;98.30;;;;;;4996093;28;20568;-47
2022/03/10 03:55:24;;;;;;;25.17;18.23;;;3.10;98.50;;;;;;4995822;28;20277;-47
2022/03/10 03:58:08;;;;;;;26.30;19.65;;;3.10;98.30;;;;;;4996432;28;20040;-46
2022/03/10 04:00:52;;;;;;;28.58;19.58;;;3.00;98.60;;;;;;4995420;28;20073;-49
2022/03/10 04:03:36;;;;;;;24.52;19.10;;;3.00;98.70;;;;;;4995745;28;20041;-49
2022/03/10 04:06:21;;;;;;;25.92;18.30;;;2.90;98.60;;;;;;4995233;28;20039;-47
2022/03/10 04:09:05;;;;;;;26.60;18.92;;;2.90;98.90;;;;;;4995158;28;20033;-48
2022/03/10 04:11:50;;;;;;;28.60;19.58;;;2.90;98.80;;;;;;4976063;28;20094;-46
2022/03/10 04:14:34;;;;;;;24.70;18.90;;;3.10;97.20;;;;;;4978679;28;20041;-46
2022/03/10 04:17:18;;;;;;;29.13;20.35;;;2.80;97.70;;;;;;4995090;28;20088;-46
2022/03/10 04:20:03;;;;;;;29.42;19.52;;;2.70;98.50;;;;;;4992888;28;20054;-47
2022/03/10 04:22:47;;;;;;;37.38;20.35;;;2.60;98.90;;;;;;4974112;28;20041;-46
2022/03/10 04:25:31;;;;;;;27.20;20.17;;;2.60;99.10;;;;;;4985024;28;20045;-50
2022/03/10 04:28:16;;;;;;;29.83;19.73;;;2.70;99.10;;;;;;4994031;28;20041;-49
2022/03/10 04:31:01;;;;;;;26.05;19.48;;;2.70;99.20;;;;;;4994772;28;20069;-49
2022/03/10 04:33:46;;;;;;;27.40;19.92;;;2.70;99.30;;;;;;4994107;28;20064;-51
2022/03/10 04:36:30;;;;;;;26.77;18.92;;;2.70;99.50;;;;;;5007183;28;20045;-48
2022/03/10 04:39:14;;;;;;;32.25;20.48;;;2.70;99.60;;;;;;4994430;28;20044;-51
2022/03/10 04:41:58;;;;;;;26.15;18.88;;;2.70;99.60;;;;;;4994050;28;20402;-45
2022/03/10 04:44:42;;;;;;;32.13;19.63;;;2.70;99.60;;;;;;4994778;28;20510;-50
2022/03/10 04:47:27;;;;;;;25.25;18.35;;;2.70;99.50;;;;;;4994221;28;20133;-51
2022/03/10 04:50:13;;;;;;;27.23;19.15;;;2.70;99.40;;;;;;4994297;28;20117;-47
2022/03/10 04:52:57;;;;;;;26.60;20.65;;;2.80;99.40;;;;;;4993846;28;20458;-48
2022/03/10 04:55:41;;;;;;;26.70;19.15;;;2.70;99.50;;;;;;4994449;28;20522;-50
2022/03/10 04:58:26;;;;;;;27.55;20.35;;;2.70;99.70;;;;;;4993800;28;20485;-52
2022/03/10 05:01:12;;;;;;;30.60;19.98;;;2.60;99.90;;;;;;4993812;28;20505;-49
2022/03/10 05:03:56;;;;;;;25.85;19.88;;;2.60;99.90;;;;;;4988602;28;20053;-49
2022/03/10 05:06:40;;;;;;;30.60;21.27;;;2.60;99.90;;;;;;4993829;28;20108;-46
2022/03/10 05:09:24;;;;;;;29.20;19.77;;;2.60;99.90;;;;;;4993762;28;20069;-50
2022/03/10 05:12:09;;;;;;;28.85;20.23;;;2.60;99.90;;;;;;4993663;28;20036;-47
2022/03/10 05:14:54;;;;;;;30.95;21.50;;;2.60;99.70;;;;;;4993350;28;20185;-49
2022/03/10 05:17:38;;;;;;;29.92;19.65;;;2.60;99.70;;;;;;4993304;28;20042;-47
2022/03/10 05:20:22;;;;;;;28.98;20.20;;;2.50;99.40;;;;;;4993421;28;20398;-47
2022/03/10 05:23:06;;;;;;;32.83;20.80;;;2.50;99.40;;;;;;4992975;28;20524;-46
2022/03/10 05:25:50;;;;;;;26.30;20.38;;;2.50;99.70;;;;;;5006904;28;20050;-47
2022/03/10 05:28:34;;;;;;;32.88;20.30;;;2.50;99.90;;;;;;4993132;28;20088;-48
2022/03/10 05:31:18;;;;;;;31.87;20.40;;;2.50;99.90;;;;;;4993329;28;20520;-48
2022/03/10 05:34:03;;;;;;;32.50;20.95;;;2.50;99.90;;;;;;4992835;28;20034;-51
2022/03/10 05:36:47;;;;;;;33.33;21.83;;;2.40;99.90;;;;;;4993656;28;20041;-48
2022/03/10 05:39:31;;;;;;;29.83;20.05;;;2.40;99.90;;;;;;4993883;28;20041;-46
2022/03/10 05:42:15;;;;;;;33.45;20.63;;;2.40;99.90;;;;;;4993254;28;20130;-48
2022/03/10 05:44:59;;;;;;;27.52;20.42;;;2.40;99.90;;;;;;4993162;28;20045;-48
2022/03/10 05:47:43;;;;;;;29.77;20.05;;;2.30;99.60;;;;;;4993220;28;20033;-48
2022/03/10 05:50:27;;;;;;;37.20;21.25;;;2.30;99.90;;;;;;4974007;28;20418;-47
2022/03/10 05:53:12;;;;;;;32.28;21.30;;;2.20;99.90;;;;;;4975345;28;20033;-52
2022/03/10 05:55:56;;;;;;;32.20;21.08;;;2.20;99.90;;;;;;5006353;28;20569;-50
2022/03/10 05:58:40;;;;;;;33.67;20.30;;;2.20;99.90;;;;;;4992961;28;20033;-47
2022/03/10 06:01:24;;;;;;;35.67;21.35;;;2.30;99.90;;;;;;4992980;28;20182;-49
2022/03/10 06:04:08;;;;;;;37.30;20.70;;;2.30;99.80;;;;;;4992649;28;20032;-48
2022/03/10 06:06:52;;;;;;;28.20;19.98;;;2.40;99.70;;;;;;4992888;28;20085;-48
2022/03/10 06:09:37;;;;;;;34.60;20.33;;;2.40;99.80;;;;;;4992644;28;20041;-49
2022/03/10 06:12:27;;;;;;;36.10;21.58;;;2.40;99.70;;;;;;4992323;28;20053;-49
2022/03/10 06:15:11;;;;;;;32.08;20.65;;;2.50;99.80;;;;;;4992803;28;20053;-52
2022/03/10 06:17:56;;;;;;;;;;;2.50;99.90;;;;;;4992900;28;20038;-49
2022/03/10 06:20:40;;;;;;;32.03;20.92;;;2.50;99.90;;;;;;4992339;28;19916;-49
2022/03/10 06:23:25;;;;;;;30.73;21.17;;;2.60;99.90;;;;;;4992821;28;20045;-50
2022/03/10 06:26:09;;;;;;;34.03;21.73;;;2.70;99.70;;;;;;5005126;28;20034;-49
2022/03/10 06:28:53;;;;;;;42.47;22.45;;;2.70;99.70;;;;;;5005463;28;20045;-51
2022/03/10 06:31:37;;;;;;;37.65;22.63;;;2.70;99.70;;;;;;4992607;28;20394;-48
2022/03/10 06:34:21;;;;;;;36.17;21.42;;;2.70;99.70;;;;;;4992536;28;20082;-49
2022/03/10 06:37:06;;;;;;;45.17;20.73;;;2.80;99.80;;;;;;4992548;28;20505;-47
2022/03/10 06:39:50;;;;;;;40.97;22.52;;;2.80;99.80;;;;;;4992875;28;20165;-49
2022/03/10 06:42:35;;;;;;;32.65;21.58;;;2.80;99.60;;;;;;4992833;28;20418;-48
2022/03/10 06:45:19;;;;;;;34.83;19.88;;;2.90;99.70;;;;;;5007253;28;20052;-48
2022/03/10 06:48:04;;;;;;;30.20;21.23;;;2.90;99.40;;;;;;4977250;28;20522;-47
2022/03/10 06:50:48;;;;;;;29.53;20.27;;;2.90;99.40;;;;;;4999311;28;20112;-50
2022/03/10 06:53:33;;;;;;;31.98;22.38;;;2.80;99.50;;;;;;4996226;28;20049;-53
2022/03/10 06:56:17;;;;;;;28.40;20.27;;;2.90;99.60;;;;;;4996434;28;20041;-47
2022/03/10 06:59:01;;;;;;;28.25;20.40;;;3.00;99.30;;;;;;4996617;28;20046;-52
2022/03/10 07:01:45;;;;;;;29.50;21.15;;;3.10;99.30;;;;;;4996123;28;20054;-52
2022/03/10 07:04:30;;;;;;;29.38;18.85;;;3.10;99.20;;;;;;4996126;28;20060;-46
2022/03/10 07:07:14;;;;;;;32.85;19.30;;;3.20;99.30;;;;;;4996140;28;20557;-48
2022/03/10 07:09:58;;;;;;;25.80;17.95;;;3.20;99.10;;;;;;4997064;28;20041;-47
2022/03/10 07:12:42;;;;;;;31.33;19.23;;;3.20;99.20;;;;;;4998257;28;20117;-50
2022/03/10 07:15:26;;;;;;;29.73;20.23;;;3.30;98.90;;;;;;4999089;28;20041;-52
2022/03/10 07:18:10;;;;;;;31.05;18.33;;;3.30;99.00;;;;;;4997076;28;20061;-51
2022/03/10 07:20:55;;;;;;;31.70;17.92;;;3.40;98.90;;;;;;4979021;28;20109;-49
2022/03/10 07:23:38;;;;;;;29.17;20.02;;;3.50;98.80;;;;;;4991945;28;20521;-46
2022/03/10 07:26:23;;;;;;;31.98;20.95;;;3.60;98.40;;;;;;4980732;28;20026;-49
2022/03/10 07:29:07;;;;;;;33.08;18.48;;;3.70;98.50;;;;;;4995866;28;20165;-49
2022/03/10 07:31:51;;;;;;;28.60;19.33;;;3.70;98.10;;;;;;4995806;28;20065;-53
2022/03/10 07:34:35;;;;;;;26.08;18.77;;;3.80;98.10;;;;;;4995378;28;20033;-50
2022/03/10 07:37:19;;;;;;;30.23;18.90;;;3.90;98.00;;;;;;4996100;28;20125;-47
2022/03/10 07:40:04;;;;;;;24.95;16.63;;;4.00;97.90;;;;;;4995854;28;20033;-48
2022/03/10 07:42:49;;;;;;;26.02;17.80;;;4.10;97.70;;;;;;4995256;28;20080;-49
2022/03/10 07:45:33;;;;;;;23.20;16.02;;;4.10;97.20;;;;;;4994339;28;20572;-49
2022/03/10 07:48:18;;;;;;;28.67;18.57;;;4.30;97.40;;;;;;4990728;28;20046;-48
2022/03/10 07:51:02;;;;;;;24.52;17.67;;;4.30;97.30;;;;;;4992533;28;20641;-48
2022/03/10 07:53:46;;;;;;;36.95;18.48;;;4.30;97.20;;;;;;4992249;28;20034;-48
2022/03/10 07:56:31;;;;;;;36.42;19.25;;;4.40;97.20;;;;;;4991480;28;20046;-48
2022/03/10 07:59:15;;;;;;;29.95;18.13;;;4.50;97.00;;;;;;4985068;28;20038;-48
2022/03/10 08:01:59;;;;;;;24.80;18.40;;;4.60;97.00;;;;;;4988864;28;20049;-48
2022/03/10 08:04:43;;;;;;;22.15;17.27;;;4.60;96.80;;;;;;4993322;28;20097;-50
2022/03/10 08:07:32;;;;;;;30.05;18.30;;;4.70;96.70;;;;;;4993740;28;20128;-46
2022/03/10 08:10:16;;;;;;;26.77;17.35;;;4.90;96.30;;;;;;4991066;28;20394;-48
2022/03/10 08:13:00;;;;;;;29.17;18.27;;;4.80;96.50;;;;;;4991980;28;20480;-51
2022/03/10 08:15:44;;;;;;;24.25;16.35;;;4.90;96.30;;;;;;4991641;28;20038;-47
2022/03/10 08:18:30;;;;;;;26.60;17.08;;;4.90;96.10;;;;;;4992880;28;20062;-47
2022/03/10 08:21:13;;;;;;;22.80;16.10;;;5.10;95.90;;;;;;4994378;28;20057;-51
2022/03/10 08:23:58;;;;;;;27.27;15.93;;;5.30;95.50;;;;;;4993005;28;20530;-50
2022/03/10 08:26:43;;;;;;;25.38;15.48;;;5.40;95.30;;;;;;4992785;28;20089;-51
2022/03/10 08:29:27;;;;;;;24.23;17.20;;;5.50;95.00;;;;;;4993599;28;20045;-46
2022/03/10 08:32:12;;;;;;;22.40;15.63;;;5.60;94.70;;;;;;4979589;28;20128;-52
2022/03/10 08:34:56;;;;;;;22.83;17.38;;;5.70;94.70;;;;;;4990253;28;20057;-49
2022/03/10 08:37:41;;;;;;;24.98;17.67;;;5.70;94.40;;;;;;4993872;28;20025;-52
2022/03/10 08:40:25;;;;;;;23.23;16.87;;;5.70;94.30;;;;;;4990902;28;20053;-47
2022/03/10 08:43:12;;;;;;;21.75;16.33;;;5.60;94.60;;;;;;4993004;28;20093;-50
2022/03/10 08:45:57;;;;;;;24.98;16.13;;;5.70;94.60;;;;;;4992220;28;20041;-47
2022/03/10 08:48:44;;;;;;;22.95;15.48;;;5.80;94.30;;;;;;4984581;28;20042;-51
2022/03/10 08:51:28;;;;;;;33.22;19.08;;;6.00;94.20;;;;;;4990795;28;20033;-50
2022/03/10 08:54:12;;;;;;;22.17;15.55;;;6.10;93.60;;;;;;4983769;28;20102;-47
2022/03/10 08:56:57;;;;;;;22.92;15.73;;;6.30;93.40;;;;;;4992909;28;20714;-47
2022/03/10 08:59:41;;;;;;;20.30;14.97;;;6.40;93.30;;;;;;4993202;28;20114;-48
2022/03/10 09:02:25;;;;;;;19.73;15.48;;;6.40;93.10;;;;;;4985049;28;20041;-49
2022/03/10 09:05:10;;;;;;;20.48;15.48;;;6.40;93.20;;;;;;4992859;28;20029;-48
2022/03/10 09:07:55;;;;;;;23.48;15.88;;;6.50;93.10;;;;;;4991330;28;20049;-49
2022/03/10 09:10:40;;;;;;;20.35;15.10;;;6.50;93.00;;;;;;4992723;28;20044;-49
2022/03/10 09:13:24;;;;;;;21.77;15.68;;;6.60;93.20;;;;;;5002023;28;20048;-46
2022/03/10 09:16:08;;;;;;;21.77;16.10;;;6.60;93.30;;;;;;4992510;28;20117;-49
2022/03/10 09:18:53;;;;;;;22.15;16.63;;;6.80;93.10;;;;;;4993663;28;20029;-47
2022/03/10 09:21:37;;;;;;;22.05;15.57;;;7.00;93.10;;;;;;4992604;28;20068;-48
2022/03/10 09:24:21;;;;;;;25.77;18.13;;;7.00;93.20;;;;;;4990277;28;20050;-47
2022/03/10 09:27:06;;;;;;;20.58;16.42;;;7.20;93.10;;;;;;5004218;28;20053;-47
2022/03/10 09:29:51;;;;;;;21.05;15.23;;;7.20;93.00;;;;;;4996025;28;20101;-49
2022/03/10 09:32:40;;;;;;;23.98;15.23;;;7.30;93.00;;;;;;4993949;28;20041;-54
2022/03/10 09:35:26;;;;;;;20.92;15.13;;;7.30;93.00;;;;;;4990146;28;20037;-51
2022/03/10 09:38:10;;;;;;;21.70;15.18;;;7.40;92.80;;;;;;4974387;28;20130;-52
2022/03/10 09:40:54;;;;;;;22.67;15.82;;;7.50;92.70;;;;;;4990069;28;20489;-47
2022/03/10 09:43:39;;;;;;;24.73;15.23;;;7.60;92.60;;;;;;4989061;28;20091;-56
2022/03/10 09:46:23;;;;;;;21.30;16.05;;;7.70;92.30;;;;;;4992323;28;20863;-53
2022/03/10 09:49:07;;;;;;;23.38;14.13;;;7.90;92.00;;;;;;4992029;28;20045;-51
2022/03/10 09:51:51;;;;;;;20.92;15.00;;;7.90;91.20;;;;;;4973863;28;20037;-50
2022/03/10 09:54:36;;;;;;;24.40;13.60;;;8.00;91.00;;;;;;4986598;28;20546;-53
2022/03/10 09:57:22;;;;;;;26.23;17.50;;;8.10;90.70;;;;;;4992459;28;20069;-56
2022/03/10 10:00:10;;;;;;;27.15;18.67;;;8.30;92.20;;;;;;4986694;28;20038;-49
2022/03/10 10:02:55;;;;;;;26.50;19.48;;;8.60;92.10;;;;;;4985347;28;20410;-52
2022/03/10 10:05:41;;;;;;;21.52;17.30;;;9.00;91.30;;;;;;4992351;28;20041;-49
2022/03/10 10:08:25;;;;;;;23.88;15.35;;;9.20;89.20;;;;;;4993147;28;20041;-48
2022/03/10 10:11:15;;;;;;;24.65;16.33;;;9.30;88.20;;;;;;4992590;28;20513;-54
2022/03/10 10:13:59;;;;;;;25.02;14.80;;;9.40;85.90;;;;;;4991930;28;20040;-50
2022/03/10 10:16:48;;;;;;;26.38;15.73;;;9.40;85.50;;;;;;4991772;28;20441;-53
2022/03/10 10:19:34;;;;;;;18.83;14.35;;;9.50;83.80;;;;;;4991893;28;20032;-52
2022/03/10 10:22:20;;;;;;;25.65;15.13;;;9.40;84.10;;;;;;4984727;28;20029;-51
2022/03/10 10:25:08;;;;;;;23.23;14.50;;;9.50;84.00;;;;;;4989479;28;20045;-52
2022/03/10 10:27:53;;;;;;;25.10;15.07;;;9.60;83.50;;;;;;4987940;28;20053;-50
2022/03/10 10:30:51;;;;;;;24.83;14.25;;;9.60;82.10;;;;;;4987245;28;20092;-48
2022/03/10 10:33:38;;;;;;;26.83;14.77;;;9.80;81.30;;;;;;4990229;28;20045;-51
2022/03/10 10:36:24;;;;;;;27.88;13.95;;;10.00;80.20;;;;;;4992029;28;20041;-53
2022/03/10 10:39:09;;;;;;;24.27;14.48;;;10.20;79.30;;;;;;4992260;28;20633;-51
2022/03/10 10:41:53;;;;;;;22.33;13.85;;;10.00;79.10;;;;;;4992574;28;20339;-54
2022/03/10 10:44:37;;;;;;;21.50;14.95;;;10.10;79.20;;;;;;4990856;28;20521;-52
2022/03/10 10:47:21;;;;;;;25.70;15.43;;;10.20;80.70;;;;;;4992984;28;20108;-49
2022/03/10 10:50:06;;;;;;;20.73;13.80;;;10.30;79.00;;;;;;4992510;28;20041;-48
2022/03/10 10:52:51;;;;;;;21.98;13.27;;;10.30;78.10;;;;;;4991919;28;20406;-46
2022/03/10 10:55:41;;;;;;;19.67;13.10;;;10.30;77.10;;;;;;4991072;28;20041;-47
2022/03/10 10:58:26;;;;;;;24.42;13.45;;;10.30;77.50;;;;;;4989629;28;20033;-48
2022/03/10 11:01:10;;;;;;;;;;;10.40;77.50;;;;;;4987489;28;20154;-49
2022/03/10 11:03:55;;;;;;;17.98;11.77;;;10.50;75.80;;;;;;4991342;28;19921;-48
2022/03/10 11:06:39;;;;;;;16.60;11.77;;;10.50;75.70;;;;;;4988180;28;20084;-45
2022/03/10 11:09:25;;;;;;;15.40;11.63;;;10.50;74.90;;;;;;4988434;28;20100;-49
2022/03/10 11:12:11;;;;;;;15.98;10.48;;;10.70;76.50;;;;;;4992227;28;20454;-49
2022/03/10 11:14:55;;;;;;;13.05;8.45;;;10.80;74.20;;;;;;4991348;28;20037;-47
2022/03/10 11:17:40;;;;;;;13.55;8.30;;;10.80;75.20;;;;;;4992255;28;20081;-50
2022/03/10 11:20:25;;;;;;;14.00;9.07;;;10.80;75.20;;;;;;4992144;28;20060;-51
2022/03/10 11:23:48;;;;;;;21.30;9.40;;;11.00;72.90;;;;;;4991613;28;20678;-46
2022/03/10 11:27:07;;;;;;;15.05;9.20;;;11.00;72.90;;;;;;4992596;28;20153;-49
2022/03/10 11:29:54;;;;;;;16.67;10.55;;;10.70;73.10;;;;;;4992465;28;20034;-48
2022/03/10 11:32:38;;;;;;;16.13;9.48;;;10.70;74.20;;;;;;4988476;28;20107;-51
2022/03/10 11:35:30;;;;;;;21.25;10.45;;;10.70;74.30;;;;;;4994013;28;20520;-52
2022/03/10 11:38:16;;;;;;;15.70;9.25;;;10.70;74.90;;;;;;4994682;28;20053;-49
2022/03/10 11:41:00;;;;;;;18.27;9.63;;;10.70;74.40;;;;;;4989567;28;20030;-49
2022/03/10 11:44:00;;;;;;;12.77;9.45;;;10.80;74.90;;;;;;4987360;28;20091;-46
2022/03/10 11:46:57;;;;;;;15.27;9.77;;;10.90;74.70;;;;;;4993020;28;20520;-48
2022/03/10 11:49:41;;;;;;;14.27;9.95;;;11.00;74.30;;;;;;4992563;28;20169;-48
2022/03/10 11:52:28;;;;;;;15.40;9.32;;;11.00;74.30;;;;;;4992612;28;20044;-53
2022/03/10 11:55:13;;;;;;;13.85;8.85;;;10.90;75.00;;;;;;4994433;28;20049;-46
2022/03/10 11:58:01;;;;;;;;;;;11.10;74.00;;;;;;4993037;28;20100;-46
2022/03/10 12:00:50;;;;;;;15.35;9.20;;;11.10;73.80;;;;;;4990601;28;20770;-51
2022/03/10 12:03:36;;;;;;;11.85;8.13;;;11.20;72.60;;;;;;4991412;28;20041;-50
2022/03/10 12:06:29;;;;;;;20.58;8.93;;;11.20;74.00;;;;;;4993975;28;20142;-46
2022/03/10 12:09:25;;;;;;;16.98;7.90;;;11.30;72.60;;;;;;4994402;28;20093;-49
2022/03/10 12:12:13;;;;;;;15.93;7.47;;;11.20;72.10;;;;;;4986674;28;20036;-46
2022/03/10 12:15:24;;;;;;;19.48;7.93;;;11.20;71.20;;;;;;4994156;28;20410;-46
2022/03/10 12:18:13;;;;;;;18.83;7.57;;;11.20;71.50;;;;;;4994697;28;20120;-47
2022/03/10 12:20:58;;;;;;;11.25;8.13;;;11.20;72.00;;;;;;5006970;28;20032;-46
2022/03/10 12:24:00;;;;;;;38.90;10.70;;;11.20;71.40;;;;;;4994265;28;20114;-50
2022/03/10 12:26:45;;;;;;;13.55;7.20;;;11.20;71.80;;;;;;4992764;28;20032;-49
2022/03/10 12:29:34;;;;;;;12.13;7.82;;;11.20;71.40;;;;;;4991984;28;20505;-50
2022/03/10 12:32:24;;;;;;;11.23;7.30;;;11.30;71.70;;;;;;5006078;28;20466;-51
2022/03/10 12:35:09;;;;;;;11.43;7.35;;;11.30;71.10;;;;;;4988218;28;20114;-53
2022/03/10 12:37:53;;;;;;;12.35;8.38;;;11.50;70.90;;;;;;4987626;28;20113;-46
2022/03/10 12:40:39;;;;;;;12.80;7.70;;;11.70;70.30;;;;;;4995194;28;20061;-50
2022/03/10 12:43:26;;;;;;;;;;;11.90;70.10;;;;;;4990062;28;20040;-51
2022/03/10 12:46:10;;;;;;;19.85;8.80;;;11.90;68.90;;;;;;4993241;28;20269;-47
2022/03/10 12:48:57;;;;;;;11.75;8.50;;;11.70;69.20;;;;;;4994434;28;20521;-49
2022/03/10 12:51:42;;;;;;;15.57;8.18;;;11.70;69.80;;;;;;4992786;28;20502;-48
2022/03/10 12:54:26;;;;;;;17.73;8.37;;;11.80;69.70;;;;;;4993775;28;20094;-49
2022/03/10 12:57:10;;;;;;;13.30;8.17;;;11.80;69.40;;;;;;4994088;28;20045;-50
2022/03/10 12:59:54;;;;;;;15.40;9.15;;;12.00;69.30;;;;;;4976113;28;20094;-48
2022/03/10 13:02:38;;;;;;;20.30;9.07;;;12.20;68.70;;;;;;4984319;28;20461;-46
2022/03/10 13:05:23;;;;;;;20.10;9.25;;;12.30;68.70;;;;;;4994597;28;20061;-47
2022/03/10 13:08:09;;;;;;;10.73;8.35;;;12.40;68.90;;;;;;4994616;28;20050;-48
2022/03/10 13:11:00;;;;;;;14.82;8.55;;;12.50;69.10;;;;;;4994208;28;20140;-50
2022/03/10 13:13:44;;;;;;;11.57;8.20;;;12.70;68.90;;;;;;4993286;28;20038;-46
2022/03/10 13:16:36;;;;;;;14.32;8.82;;;12.90;69.90;;;;;;4994067;28;20037;-47
2022/03/10 13:19:26;;;;;;;11.85;8.82;;;13.20;69.50;;;;;;4974181;28;20081;-48
2022/03/10 13:22:11;;;;;;;18.65;8.68;;;13.50;67.10;;;;;;4991798;28;20126;-45
2022/03/10 13:24:56;;;;;;;12.63;9.05;;;13.70;66.50;;;;;;4985003;28;20045;-48
2022/03/10 13:27:39;;;;;;;13.30;8.68;;;13.70;65.40;;;;;;4993592;28;20509;-49
2022/03/10 13:30:26;;;;;;;13.38;8.50;;;13.60;65.50;;;;;;4993848;28;20041;-47
2022/03/10 13:33:12;;;;;;;17.52;7.97;;;13.70;65.60;;;;;;4992098;28;20045;-49
2022/03/10 13:35:57;;;;;;;14.88;8.07;;;13.60;65.70;;;;;;4992754;28;20033;-47
2022/03/10 13:38:44;;;;;;;15.30;8.90;;;13.70;64.30;;;;;;4992161;28;20073;-52
2022/03/10 13:41:29;;;;;;;13.73;8.75;;;13.60;64.70;;;;;;4993141;28;20029;-50
2022/03/10 13:44:14;;;;;;;17.35;9.35;;;13.50;66.00;;;;;;4993341;28;20149;-48
2022/03/10 13:47:04;;;;;;;14.10;10.05;;;13.70;65.20;;;;;;4988936;28;20403;-48
2022/03/10 13:49:50;;;;;;;13.15;8.15;;;13.80;65.20;;;;;;4991997;28;20068;-53
2022/03/10 13:52:35;;;;;;;15.77;8.75;;;14.00;65.80;;;;;;4992379;28;20038;-48
2022/03/10 13:55:28;;;;;;;12.17;8.87;;;14.30;64.30;;;;;;4986159;28;20033;-52
2022/03/10 13:58:13;;;;;;;18.25;9.30;;;14.40;63.10;;;;;;4991148;28;20033;-50
2022/03/10 14:01:06;;;;;;;16.25;8.82;;;14.40;62.80;;;;;;5004114;28;20044;-46
2022/03/10 14:03:53;;;;;;;16.83;7.80;;;14.30;62.70;;;;;;4972312;28;20057;-52
2022/03/10 14:06:49;;;;;;;17.63;8.15;;;14.40;62.80;;;;;;4972150;28;20049;-50
2022/03/10 14:09:40;;;;;;;17.50;9.30;;;14.30;62.40;;;;;;4971624;28;20104;-48
2022/03/10 14:12:26;;;;;;;13.20;8.73;;;14.10;61.70;;;;;;4973491;28;20558;-50
2022/03/10 14:15:10;;;;;;;13.77;8.20;;;14.10;62.60;;;;;;4992117;28;20052;-46
2022/03/10 14:17:58;;;;;;;13.47;8.17;;;14.30;61.10;;;;;;4991134;28;20529;-49